sensor_id;sensor_type;location;lat;lon;timestamp;temperature;humidity
8340;DHT22;4207;49.314;7.162;2023-03-26T00:00:10;6.50;99.90
8340;DHT22;4207;49.314;7.162;2023-03-26T00:02:40;6.50;99.90
8340;DHT22;4207;49.314;7.162;2023-03-26T00:05:09;6.50;99.90
8340;DHT22;4207;49.314;7.162;2023-03-26T00:07:40;6.90;99.90
8340;DHT22;4207;49.314;7.162;2023-03-26T00:10:09;6.50;99.90
8340;DHT22;4207;49.314;7.162;2023-03-26T00:12:38;6.50;99.90
8340;DHT22;4207;49.314;7.162;2023-03-26T00:15:07;6.40;99.90
8340;DHT22;4207;49.314;7.162;2023-03-26T00:17:36;6.40;99.90
8340;DHT22;4207;49.314;7.162;2023-03-26T00:20:05;6.40;99.90
8340;DHT22;4207;49.314;7.162;2023-03-26T00:22:34;6.50;99.90
8340;DHT22;4207;49.314;7.162;2023-03-26T00:25:03;5.70;99.90
8340;DHT22;4207;49.314;7.162;2023-03-26T00:27:33;6.50;99.90
8340;DHT22;4207;49.314;7.162;2023-03-26T00:30:03;6.50;99.90
8340;DHT22;4207;49.314;7.162;2023-03-26T00:32:32;6.50;99.90
8340;DHT22;4207;49.314;7.162;2023-03-26T00:35:02;6.50;99.90
8340;DHT22;4207;49.314;7.162;2023-03-26T00:37:31;6.50;99.90
8340;DHT22;4207;49.314;7.162;2023-03-26T00:40:00;6.50;99.90
8340;DHT22;4207;49.314;7.162;2023-03-26T00:42:33;6.50;99.90
8340;DHT22;4207;49.314;7.162;2023-03-26T00:45:06;6.50;99.90
8340;DHT22;4207;49.314;7.162;2023-03-26T00:47:38;6.60;99.90
8340;DHT22;4207;49.314;7.162;2023-03-26T00:50:08;6.80;99.90
8340;DHT22;4207;49.314;7.162;2023-03-26T00:52:41;6.70;99.90
8340;DHT22;4207;49.314;7.162;2023-03-26T00:55:11;6.70;99.90
8340;DHT22;4207;49.314;7.162;2023-03-26T00:57:41;6.70;99.90
8340;DHT22;4207;49.314;7.162;2023-03-26T01:00:15;6.70;99.90
8340;DHT22;4207;49.314;7.162;2023-03-26T01:02:47;6.70;99.90
8340;DHT22;4207;49.314;7.162;2023-03-26T01:05:39;6.90;99.90
8340;DHT22;4207;49.314;7.162;2023-03-26T01:08:24;6.70;99.90
8340;DHT22;4207;49.314;7.162;2023-03-26T01:10:55;6.70;99.90
8340;DHT22;4207;49.314;7.162;2023-03-26T01:13:32;6.70;99.90
8340;DHT22;4207;49.314;7.162;2023-03-26T01:16:05;6.70;99.90
8340;DHT22;4207;49.314;7.162;2023-03-26T01:18:37;6.70;99.90
8340;DHT22;4207;49.314;7.162;2023-03-26T01:21:08;6.80;99.90
8340;DHT22;4207;49.314;7.162;2023-03-26T01:23:43;6.80;99.90
8340;DHT22;4207;49.314;7.162;2023-03-26T01:26:24;6.80;99.90
8340;DHT22;4207;49.314;7.162;2023-03-26T01:28:57;6.90;99.90
8340;DHT22;4207;49.314;7.162;2023-03-26T01:31:32;6.90;99.90
8340;DHT22;4207;49.314;7.162;2023-03-26T01:34:09;7.00;99.90
8340;DHT22;4207;49.314;7.162;2023-03-26T01:36:43;6.90;99.90
8340;DHT22;4207;49.314;7.162;2023-03-26T01:39:18;7.00;99.90
8340;DHT22;4207;49.314;7.162;2023-03-26T01:41:51;7.20;99.90
8340;DHT22;4207;49.314;7.162;2023-03-26T01:44:27;7.10;99.90
8340;DHT22;4207;49.314;7.162;2023-03-26T01:46:58;7.10;99.90
8340;DHT22;4207;49.314;7.162;2023-03-26T01:49:28;7.00;99.90
8340;DHT22;4207;49.314;7.162;2023-03-26T01:51:58;7.20;99.90
8340;DHT22;4207;49.314;7.162;2023-03-26T01:54:28;7.00;99.90
8340;DHT22;4207;49.314;7.162;2023-03-26T01:57:05;7.00;99.90
8340;DHT22;4207;49.314;7.162;2023-03-26T02:00:08;7.00;99.90
8340;DHT22;4207;49.314;7.162;2023-03-26T02:02:55;6.90;99.90
8340;DHT22;4207;49.314;7.162;2023-03-26T02:05:28;7.10;99.90
8340;DHT22;4207;49.314;7.162;2023-03-26T02:08:02;6.90;99.90
8340;DHT22;4207;49.314;7.162;2023-03-26T02:10:39;6.90;99.90
8340;DHT22;4207;49.314;7.162;2023-03-26T02:13:10;7.00;99.90
8340;DHT22;4207;49.314;7.162;2023-03-26T02:15:38;7.00;99.90
8340;DHT22;4207;49.314;7.162;2023-03-26T02:18:09;7.00;99.90
8340;DHT22;4207;49.314;7.162;2023-03-26T02:20:41;7.10;99.90
8340;DHT22;4207;49.314;7.162;2023-03-26T02:23:10;7.10;99.90
8340;DHT22;4207;49.314;7.162;2023-03-26T02:25:38;7.10;99.90
8340;DHT22;4207;49.314;7.162;2023-03-26T02:28:10;7.10;99.90
8340;DHT22;4207;49.314;7.162;2023-03-26T02:30:38;7.10;99.90
8340;DHT22;4207;49.314;7.162;2023-03-26T02:33:06;7.10;99.90
8340;DHT22;4207;49.314;7.162;2023-03-26T02:35:40;7.00;99.90
8340;DHT22;4207;49.314;7.162;2023-03-26T02:38:11;7.20;99.90
8340;DHT22;4207;49.314;7.162;2023-03-26T02:40:43;7.10;99.90
8340;DHT22;4207;49.314;7.162;2023-03-26T02:43:13;7.00;99.90
8340;DHT22;4207;49.314;7.162;2023-03-26T02:45:42;7.10;99.90
8340;DHT22;4207;49.314;7.162;2023-03-26T02:48:39;7.10;99.90
8340;DHT22;4207;49.314;7.162;2023-03-26T02:51:14;7.10;99.90
8340;DHT22;4207;49.314;7.162;2023-03-26T02:54:08;7.10;99.90
8340;DHT22;4207;49.314;7.162;2023-03-26T02:57:00;7.20;99.90
8340;DHT22;4207;49.314;7.162;2023-03-26T02:59:41;7.20;99.90
8340;DHT22;4207;49.314;7.162;2023-03-26T03:02:30;7.10;99.90
8340;DHT22;4207;49.314;7.162;2023-03-26T03:05:13;7.20;99.90
8340;DHT22;4207;49.314;7.162;2023-03-26T03:07:45;7.20;99.90
8340;DHT22;4207;49.314;7.162;2023-03-26T03:10:13;7.20;99.90
8340;DHT22;4207;49.314;7.162;2023-03-26T03:13:02;7.20;99.90
8340;DHT22;4207;49.314;7.162;2023-03-26T03:15:34;7.20;99.90
8340;DHT22;4207;49.314;7.162;2023-03-26T03:18:03;7.20;99.90
8340;DHT22;4207;49.314;7.162;2023-03-26T03:20:32;7.20;99.90
8340;DHT22;4207;49.314;7.162;2023-03-26T03:23:01;7.20;99.90
8340;DHT22;4207;49.314;7.162;2023-03-26T03:25:30;7.20;99.90
8340;DHT22;4207;49.314;7.162;2023-03-26T03:27:59;7.20;99.90
8340;DHT22;4207;49.314;7.162;2023-03-26T03:30:28;7.20;99.90
8340;DHT22;4207;49.314;7.162;2023-03-26T03:33:20;7.40;99.90
8340;DHT22;4207;49.314;7.162;2023-03-26T03:35:49;7.40;99.90
8340;DHT22;4207;49.314;7.162;2023-03-26T03:38:18;7.20;99.90
8340;DHT22;4207;49.314;7.162;2023-03-26T03:40:49;7.30;99.90
8340;DHT22;4207;49.314;7.162;2023-03-26T03:43:19;7.30;99.90
8340;DHT22;4207;49.314;7.162;2023-03-26T03:46:00;7.30;99.90
8340;DHT22;4207;49.314;7.162;2023-03-26T03:48:50;7.30;99.90
8340;DHT22;4207;49.314;7.162;2023-03-26T03:51:26;7.30;99.90
8340;DHT22;4207;49.314;7.162;2023-03-26T03:54:03;7.30;99.90
8340;DHT22;4207;49.314;7.162;2023-03-26T03:56:54;7.30;99.90
8340;DHT22;4207;49.314;7.162;2023-03-26T03:59:22;7.30;99.90
8340;DHT22;4207;49.314;7.162;2023-03-26T04:01:51;7.30;99.90
8340;DHT22;4207;49.314;7.162;2023-03-26T04:04:45;7.40;99.90
8340;DHT22;4207;49.314;7.162;2023-03-26T04:07:19;7.40;99.90
8340;DHT22;4207;49.314;7.162;2023-03-26T04:10:07;7.30;99.90
8340;DHT22;4207;49.314;7.162;2023-03-26T04:13:15;7.40;99.90
8340;DHT22;4207;49.314;7.162;2023-03-26T04:15:56;7.40;99.90
8340;DHT22;4207;49.314;7.162;2023-03-26T04:18:28;7.40;99.90
8340;DHT22;4207;49.314;7.162;2023-03-26T04:21:08;7.50;99.90
8340;DHT22;4207;49.314;7.162;2023-03-26T04:23:38;7.50;99.90
8340;DHT22;4207;49.314;7.162;2023-03-26T04:26:22;7.60;99.90
8340;DHT22;4207;49.314;7.162;2023-03-26T04:29:19;7.50;99.90
8340;DHT22;4207;49.314;7.162;2023-03-26T04:31:53;7.50;99.90
8340;DHT22;4207;49.314;7.162;2023-03-26T04:34:26;7.50;99.90
8340;DHT22;4207;49.314;7.162;2023-03-26T04:37:21;8.00;99.90
8340;DHT22;4207;49.314;7.162;2023-03-26T04:40:00;7.60;99.90
8340;DHT22;4207;49.314;7.162;2023-03-26T04:42:44;7.50;99.90
8340;DHT22;4207;49.314;7.162;2023-03-26T04:45:21;7.60;99.90
8340;DHT22;4207;49.314;7.162;2023-03-26T04:47:55;8.40;99.90
8340;DHT22;4207;49.314;7.162;2023-03-26T04:50:25;7.50;99.90
8340;DHT22;4207;49.314;7.162;2023-03-26T04:52:56;7.60;99.90
8340;DHT22;4207;49.314;7.162;2023-03-26T04:55:47;7.60;99.90
8340;DHT22;4207;49.314;7.162;2023-03-26T04:58:34;7.60;99.90
8340;DHT22;4207;49.314;7.162;2023-03-26T05:01:03;7.70;99.90
8340;DHT22;4207;49.314;7.162;2023-03-26T05:03:38;7.60;99.90
8340;DHT22;4207;49.314;7.162;2023-03-26T05:06:12;7.50;99.90
8340;DHT22;4207;49.314;7.162;2023-03-26T05:08:42;7.50;99.90
8340;DHT22;4207;49.314;7.162;2023-03-26T05:11:19;7.50;99.90
8340;DHT22;4207;49.314;7.162;2023-03-26T05:13:47;7.50;99.90
8340;DHT22;4207;49.314;7.162;2023-03-26T05:16:16;7.50;99.90
8340;DHT22;4207;49.314;7.162;2023-03-26T05:18:52;7.50;99.90
8340;DHT22;4207;49.314;7.162;2023-03-26T05:21:21;7.70;99.90
8340;DHT22;4207;49.314;7.162;2023-03-26T05:23:51;8.00;99.90
8340;DHT22;4207;49.314;7.162;2023-03-26T05:26:20;7.50;99.90
8340;DHT22;4207;49.314;7.162;2023-03-26T05:28:48;7.60;99.90
8340;DHT22;4207;49.314;7.162;2023-03-26T05:31:38;7.50;99.90
8340;DHT22;4207;49.314;7.162;2023-03-26T05:34:07;7.50;99.90
8340;DHT22;4207;49.314;7.162;2023-03-26T05:36:35;7.60;99.90
8340;DHT22;4207;49.314;7.162;2023-03-26T05:39:24;7.60;99.90
8340;DHT22;4207;49.314;7.162;2023-03-26T05:42:11;7.50;99.90
8340;DHT22;4207;49.314;7.162;2023-03-26T05:44:58;7.50;99.90
8340;DHT22;4207;49.314;7.162;2023-03-26T05:47:28;7.60;99.90
8340;DHT22;4207;49.314;7.162;2023-03-26T05:49:57;7.50;99.90
8340;DHT22;4207;49.314;7.162;2023-03-26T05:52:26;7.80;99.90
8340;DHT22;4207;49.314;7.162;2023-03-26T05:55:15;7.60;99.90
8340;DHT22;4207;49.314;7.162;2023-03-26T05:58:02;7.60;99.90
8340;DHT22;4207;49.314;7.162;2023-03-26T06:00:55;7.60;99.90
8340;DHT22;4207;49.314;7.162;2023-03-26T06:03:33;7.60;99.90
8340;DHT22;4207;49.314;7.162;2023-03-26T06:06:14;7.50;99.90
8340;DHT22;4207;49.314;7.162;2023-03-26T06:08:51;7.70;99.90
8340;DHT22;4207;49.314;7.162;2023-03-26T06:11:30;7.50;99.90
8340;DHT22;4207;49.314;7.162;2023-03-26T06:14:01;7.50;99.90
8340;DHT22;4207;49.314;7.162;2023-03-26T06:16:30;7.50;99.90
8340;DHT22;4207;49.314;7.162;2023-03-26T06:19:14;8.10;99.90
8340;DHT22;4207;49.314;7.162;2023-03-26T06:22:10;7.50;99.90
8340;DHT22;4207;49.314;7.162;2023-03-26T06:25:08;7.50;99.90
8340;DHT22;4207;49.314;7.162;2023-03-26T06:27:49;7.50;99.90
8340;DHT22;4207;49.314;7.162;2023-03-26T06:30:43;7.50;99.90
8340;DHT22;4207;49.314;7.162;2023-03-26T06:33:20;7.50;99.90
8340;DHT22;4207;49.314;7.162;2023-03-26T06:35:50;8.20;99.90
8340;DHT22;4207;49.314;7.162;2023-03-26T06:38:19;7.70;99.90
8340;DHT22;4207;49.314;7.162;2023-03-26T06:40:47;7.50;99.90
8340;DHT22;4207;49.314;7.162;2023-03-26T06:43:17;7.50;99.90
8340;DHT22;4207;49.314;7.162;2023-03-26T06:46:06;7.50;99.90
8340;DHT22;4207;49.314;7.162;2023-03-26T06:48:53;7.50;99.90
8340;DHT22;4207;49.314;7.162;2023-03-26T06:51:47;7.50;99.90
8340;DHT22;4207;49.314;7.162;2023-03-26T06:54:40;7.50;99.90
8340;DHT22;4207;49.314;7.162;2023-03-26T06:57:14;7.50;99.90
8340;DHT22;4207;49.314;7.162;2023-03-26T07:00:03;7.70;99.90
8340;DHT22;4207;49.314;7.162;2023-03-26T07:02:50;7.60;99.90
8340;DHT22;4207;49.314;7.162;2023-03-26T07:05:39;7.60;99.90
8340;DHT22;4207;49.314;7.162;2023-03-26T07:08:27;8.40;99.90
8340;DHT22;4207;49.314;7.162;2023-03-26T07:11:15;7.50;99.90
8340;DHT22;4207;49.314;7.162;2023-03-26T07:14:14;7.50;99.90
8340;DHT22;4207;49.314;7.162;2023-03-26T07:17:19;7.60;99.90
8340;DHT22;4207;49.314;7.162;2023-03-26T07:19:58;7.50;99.90
8340;DHT22;4207;49.314;7.162;2023-03-26T07:22:29;7.60;99.90
8340;DHT22;4207;49.314;7.162;2023-03-26T07:25:24;7.60;99.90
8340;DHT22;4207;49.314;7.162;2023-03-26T07:28:27;7.60;99.90
8340;DHT22;4207;49.314;7.162;2023-03-26T07:31:21;7.70;99.90
8340;DHT22;4207;49.314;7.162;2023-03-26T07:34:17;7.80;99.90
8340;DHT22;4207;49.314;7.162;2023-03-26T07:37:16;7.90;99.90
8340;DHT22;4207;49.314;7.162;2023-03-26T07:40:11;8.00;99.90
8340;DHT22;4207;49.314;7.162;2023-03-26T07:43:22;8.00;99.90
8340;DHT22;4207;49.314;7.162;2023-03-26T07:46:21;8.10;99.90
8340;DHT22;4207;49.314;7.162;2023-03-26T07:49:21;8.10;99.90
8340;DHT22;4207;49.314;7.162;2023-03-26T07:52:04;8.10;99.90
8340;DHT22;4207;49.314;7.162;2023-03-26T07:54:51;8.20;99.90
8340;DHT22;4207;49.314;7.162;2023-03-26T07:57:45;8.20;99.90
8340;DHT22;4207;49.314;7.162;2023-03-26T08:00:35;8.20;99.90
8340;DHT22;4207;49.314;7.162;2023-03-26T08:03:20;8.20;99.90
8340;DHT22;4207;49.314;7.162;2023-03-26T08:06:02;8.20;99.90
8340;DHT22;4207;49.314;7.162;2023-03-26T08:09:01;8.30;99.90
8340;DHT22;4207;49.314;7.162;2023-03-26T08:11:43;8.60;99.90
8340;DHT22;4207;49.314;7.162;2023-03-26T08:14:33;8.90;99.90
8340;DHT22;4207;49.314;7.162;2023-03-26T08:17:09;9.40;99.90
8340;DHT22;4207;49.314;7.162;2023-03-26T08:19:49;9.70;99.90
8340;DHT22;4207;49.314;7.162;2023-03-26T08:22:22;10.00;99.90
8340;DHT22;4207;49.314;7.162;2023-03-26T08:25:09;10.00;99.90
8340;DHT22;4207;49.314;7.162;2023-03-26T08:27:48;9.90;99.90
8340;DHT22;4207;49.314;7.162;2023-03-26T08:30:21;9.80;99.90
8340;DHT22;4207;49.314;7.162;2023-03-26T08:32:54;9.70;99.90
8340;DHT22;4207;49.314;7.162;2023-03-26T08:35:23;9.70;99.90
8340;DHT22;4207;49.314;7.162;2023-03-26T08:37:53;9.80;99.90
8340;DHT22;4207;49.314;7.162;2023-03-26T08:40:40;9.90;99.90
8340;DHT22;4207;49.314;7.162;2023-03-26T08:43:37;10.00;99.90
8340;DHT22;4207;49.314;7.162;2023-03-26T08:46:26;10.10;99.90
8340;DHT22;4207;49.314;7.162;2023-03-26T08:52:34;10.00;99.90
8340;DHT22;4207;49.314;7.162;2023-03-26T08:55:31;9.80;99.90
8340;DHT22;4207;49.314;7.162;2023-03-26T08:58:29;9.60;99.90
8340;DHT22;4207;49.314;7.162;2023-03-26T09:01:37;9.50;99.90
8340;DHT22;4207;49.314;7.162;2023-03-26T09:04:47;9.50;99.90
8340;DHT22;4207;49.314;7.162;2023-03-26T09:08:13;9.50;99.90
8340;DHT22;4207;49.314;7.162;2023-03-26T09:11:02;9.60;99.90
8340;DHT22;4207;49.314;7.162;2023-03-26T09:14:12;9.70;99.90
8340;DHT22;4207;49.314;7.162;2023-03-26T09:17:06;9.90;99.90
8340;DHT22;4207;49.314;7.162;2023-03-26T09:29:26;10.90;99.90
8340;DHT22;4207;49.314;7.162;2023-03-26T09:32:31;10.90;99.90
8340;DHT22;4207;49.314;7.162;2023-03-26T09:35:11;10.90;99.90
8340;DHT22;4207;49.314;7.162;2023-03-26T09:37:55;10.80;99.90
8340;DHT22;4207;49.314;7.162;2023-03-26T09:40:34;10.80;99.90
8340;DHT22;4207;49.314;7.162;2023-03-26T09:43:30;10.70;99.90
8340;DHT22;4207;49.314;7.162;2023-03-26T09:46:11;10.50;99.90
8340;DHT22;4207;49.314;7.162;2023-03-26T09:48:49;10.20;99.90
8340;DHT22;4207;49.314;7.162;2023-03-26T09:54:49;9.90;99.90
8340;DHT22;4207;49.314;7.162;2023-03-26T09:57:28;9.90;99.90
8340;DHT22;4207;49.314;7.162;2023-03-26T10:00:14;9.90;99.90
8340;DHT22;4207;49.314;7.162;2023-03-26T10:03:07;10.20;99.90
8340;DHT22;4207;49.314;7.162;2023-03-26T10:05:46;10.40;99.90
8340;DHT22;4207;49.314;7.162;2023-03-26T10:08:35;10.50;99.90
8340;DHT22;4207;49.314;7.162;2023-03-26T10:11:12;10.70;99.90
8340;DHT22;4207;49.314;7.162;2023-03-26T10:13:54;10.90;99.90
8340;DHT22;4207;49.314;7.162;2023-03-26T10:16:33;11.00;99.90
8340;DHT22;4207;49.314;7.162;2023-03-26T10:19:17;11.00;99.90
8340;DHT22;4207;49.314;7.162;2023-03-26T10:21:54;11.20;99.90
8340;DHT22;4207;49.314;7.162;2023-03-26T10:24:42;11.40;99.90
8340;DHT22;4207;49.314;7.162;2023-03-26T10:27:34;11.50;99.90
8340;DHT22;4207;49.314;7.162;2023-03-26T10:30:27;11.60;99.90
8340;DHT22;4207;49.314;7.162;2023-03-26T10:33:11;11.50;99.90
8340;DHT22;4207;49.314;7.162;2023-03-26T10:35:46;11.50;99.90
8340;DHT22;4207;49.314;7.162;2023-03-26T10:38:22;11.30;99.90
8340;DHT22;4207;49.314;7.162;2023-03-26T10:40:58;11.30;99.90
8340;DHT22;4207;49.314;7.162;2023-03-26T10:50:03;11.50;99.90
8340;DHT22;4207;49.314;7.162;2023-03-26T10:52:52;11.50;99.90
8340;DHT22;4207;49.314;7.162;2023-03-26T10:55:27;11.40;99.90
8340;DHT22;4207;49.314;7.162;2023-03-26T10:57:58;11.40;99.90
8340;DHT22;4207;49.314;7.162;2023-03-26T11:00:27;11.40;99.90
8340;DHT22;4207;49.314;7.162;2023-03-26T11:03:16;11.50;99.90
8340;DHT22;4207;49.314;7.162;2023-03-26T11:05:54;11.70;99.90
8340;DHT22;4207;49.314;7.162;2023-03-26T11:08:30;11.70;99.90
8340;DHT22;4207;49.314;7.162;2023-03-26T11:11:07;11.50;99.90
8340;DHT22;4207;49.314;7.162;2023-03-26T11:13:45;11.50;99.90
8340;DHT22;4207;49.314;7.162;2023-03-26T11:16:23;11.60;99.90
8340;DHT22;4207;49.314;7.162;2023-03-26T11:18:56;11.50;99.90
8340;DHT22;4207;49.314;7.162;2023-03-26T11:21:32;11.60;99.90
8340;DHT22;4207;49.314;7.162;2023-03-26T11:24:24;11.60;99.90
8340;DHT22;4207;49.314;7.162;2023-03-26T11:26:59;11.60;99.90
8340;DHT22;4207;49.314;7.162;2023-03-26T11:29:48;11.50;99.90
8340;DHT22;4207;49.314;7.162;2023-03-26T11:32:20;11.40;99.90
8340;DHT22;4207;49.314;7.162;2023-03-26T11:34:55;11.40;99.90
8340;DHT22;4207;49.314;7.162;2023-03-26T11:37:31;11.60;99.90
8340;DHT22;4207;49.314;7.162;2023-03-26T11:40:05;11.80;99.90
8340;DHT22;4207;49.314;7.162;2023-03-26T11:42:37;11.90;99.90
8340;DHT22;4207;49.314;7.162;2023-03-26T11:45:14;12.10;99.90
8340;DHT22;4207;49.314;7.162;2023-03-26T11:47:46;12.20;99.90
8340;DHT22;4207;49.314;7.162;2023-03-26T11:50:17;12.40;99.90
8340;DHT22;4207;49.314;7.162;2023-03-26T11:52:51;12.50;99.90
8340;DHT22;4207;49.314;7.162;2023-03-26T11:55:20;12.40;99.90
8340;DHT22;4207;49.314;7.162;2023-03-26T11:57:53;12.40;99.90
8340;DHT22;4207;49.314;7.162;2023-03-26T12:00:22;12.30;99.90
8340;DHT22;4207;49.314;7.162;2023-03-26T12:02:55;12.70;99.90
8340;DHT22;4207;49.314;7.162;2023-03-26T12:05:28;12.30;99.90
8340;DHT22;4207;49.314;7.162;2023-03-26T12:08:03;12.50;99.90
8340;DHT22;4207;49.314;7.162;2023-03-26T12:10:50;12.50;99.90
8340;DHT22;4207;49.314;7.162;2023-03-26T12:13:28;12.70;99.90
8340;DHT22;4207;49.314;7.162;2023-03-26T12:16:05;12.90;99.90
8340;DHT22;4207;49.314;7.162;2023-03-26T12:18:34;13.10;99.90
8340;DHT22;4207;49.314;7.162;2023-03-26T12:21:06;13.30;99.90
8340;DHT22;4207;49.314;7.162;2023-03-26T12:23:42;13.40;99.90
8340;DHT22;4207;49.314;7.162;2023-03-26T12:26:14;13.30;99.90
8340;DHT22;4207;49.314;7.162;2023-03-26T12:28:44;13.40;99.90
8340;DHT22;4207;49.314;7.162;2023-03-26T12:31:13;13.40;99.90
8340;DHT22;4207;49.314;7.162;2023-03-26T12:33:49;13.40;99.90
8340;DHT22;4207;49.314;7.162;2023-03-26T12:36:21;13.50;99.90
8340;DHT22;4207;49.314;7.162;2023-03-26T12:38:53;13.60;99.90
8340;DHT22;4207;49.314;7.162;2023-03-26T12:41:41;13.70;99.90
8340;DHT22;4207;49.314;7.162;2023-03-26T12:44:33;13.60;99.90
8340;DHT22;4207;49.314;7.162;2023-03-26T12:47:24;13.50;99.90
8340;DHT22;4207;49.314;7.162;2023-03-26T12:50:14;13.40;99.90
8340;DHT22;4207;49.314;7.162;2023-03-26T12:53:01;13.20;99.90
8340;DHT22;4207;49.314;7.162;2023-03-26T12:55:43;13.30;99.90
8340;DHT22;4207;49.314;7.162;2023-03-26T12:58:31;13.20;99.90
8340;DHT22;4207;49.314;7.162;2023-03-26T13:01:05;13.10;99.90
8340;DHT22;4207;49.314;7.162;2023-03-26T13:04:03;13.10;99.90
8340;DHT22;4207;49.314;7.162;2023-03-26T13:06:39;13.10;99.90
8340;DHT22;4207;49.314;7.162;2023-03-26T13:10:06;13.00;99.90
8340;DHT22;4207;49.314;7.162;2023-03-26T13:12:44;12.90;99.90
8340;DHT22;4207;49.314;7.162;2023-03-26T13:15:19;12.80;99.90
8340;DHT22;4207;49.314;7.162;2023-03-26T13:18:00;12.70;99.90
8340;DHT22;4207;49.314;7.162;2023-03-26T13:20:44;12.50;99.90
8340;DHT22;4207;49.314;7.162;2023-03-26T13:23:24;12.50;99.90
8340;DHT22;4207;49.314;7.162;2023-03-26T13:26:02;12.30;99.90
8340;DHT22;4207;49.314;7.162;2023-03-26T13:28:40;12.20;99.90
8340;DHT22;4207;49.314;7.162;2023-03-26T13:31:17;12.20;99.90
8340;DHT22;4207;49.314;7.162;2023-03-26T13:33:53;12.10;99.90
8340;DHT22;4207;49.314;7.162;2023-03-26T13:36:30;11.90;99.90
8340;DHT22;4207;49.314;7.162;2023-03-26T13:39:13;11.90;99.90
8340;DHT22;4207;49.314;7.162;2023-03-26T13:41:54;11.80;99.90
8340;DHT22;4207;49.314;7.162;2023-03-26T13:44:35;11.70;99.90
8340;DHT22;4207;49.314;7.162;2023-03-26T13:47:09;11.70;99.90
8340;DHT22;4207;49.314;7.162;2023-03-26T13:49:41;11.70;99.90
8340;DHT22;4207;49.314;7.162;2023-03-26T13:52:14;11.90;99.90
8340;DHT22;4207;49.314;7.162;2023-03-26T13:54:48;11.90;99.90
8340;DHT22;4207;49.314;7.162;2023-03-26T13:57:22;12.20;99.90
8340;DHT22;4207;49.314;7.162;2023-03-26T13:59:55;11.70;99.90
8340;DHT22;4207;49.314;7.162;2023-03-26T14:02:29;12.00;99.90
8340;DHT22;4207;49.314;7.162;2023-03-26T14:05:04;11.80;99.90
8340;DHT22;4207;49.314;7.162;2023-03-26T14:07:39;11.80;99.90
8340;DHT22;4207;49.314;7.162;2023-03-26T14:10:11;11.90;99.90
8340;DHT22;4207;49.314;7.162;2023-03-26T14:12:45;11.80;99.90
8340;DHT22;4207;49.314;7.162;2023-03-26T14:15:24;11.70;99.90
8340;DHT22;4207;49.314;7.162;2023-03-26T14:17:59;11.60;99.90
8340;DHT22;4207;49.314;7.162;2023-03-26T14:21:07;11.40;99.90
8340;DHT22;4207;49.314;7.162;2023-03-26T14:24:03;11.20;99.90
8340;DHT22;4207;49.314;7.162;2023-03-26T14:27:00;11.20;99.90
8340;DHT22;4207;49.314;7.162;2023-03-26T14:29:58;11.00;99.90
8340;DHT22;4207;49.314;7.162;2023-03-26T14:32:54;11.00;99.90
8340;DHT22;4207;49.314;7.162;2023-03-26T14:35:35;11.00;99.90
8340;DHT22;4207;49.314;7.162;2023-03-26T14:38:31;11.10;99.90
8340;DHT22;4207;49.314;7.162;2023-03-26T14:41:12;11.20;99.90
8340;DHT22;4207;49.314;7.162;2023-03-26T14:44:15;11.20;99.90
8340;DHT22;4207;49.314;7.162;2023-03-26T14:47:01;11.20;99.90
8340;DHT22;4207;49.314;7.162;2023-03-26T14:52:42;11.40;99.90
8340;DHT22;4207;49.314;7.162;2023-03-26T14:55:17;11.50;99.90
8340;DHT22;4207;49.314;7.162;2023-03-26T14:58:17;11.90;99.90
8340;DHT22;4207;49.314;7.162;2023-03-26T15:04:36;11.80;99.90
8340;DHT22;4207;49.314;7.162;2023-03-26T15:13:44;11.40;99.90
8340;DHT22;4207;49.314;7.162;2023-03-26T15:16:58;11.10;99.90
8340;DHT22;4207;49.314;7.162;2023-03-26T15:32:09;10.20;99.90
8340;DHT22;4207;49.314;7.162;2023-03-26T15:40:52;9.40;99.90
8340;DHT22;4207;49.314;7.162;2023-03-26T15:43:28;9.20;99.90
8340;DHT22;4207;49.314;7.162;2023-03-26T15:46:30;9.30;99.90
8340;DHT22;4207;49.314;7.162;2023-03-26T15:49:06;9.60;99.90
8340;DHT22;4207;49.314;7.162;2023-03-26T15:51:44;9.80;99.90
8340;DHT22;4207;49.314;7.162;2023-03-26T15:54:20;9.90;99.90
8340;DHT22;4207;49.314;7.162;2023-03-26T15:57:11;9.80;99.90
8340;DHT22;4207;49.314;7.162;2023-03-26T16:02:47;9.70;99.90
8340;DHT22;4207;49.314;7.162;2023-03-26T16:05:36;9.70;99.90
8340;DHT22;4207;49.314;7.162;2023-03-26T16:08:17;9.70;99.90
8340;DHT22;4207;49.314;7.162;2023-03-26T16:10:52;9.70;99.90
8340;DHT22;4207;49.314;7.162;2023-03-26T16:13:29;9.60;99.90
8340;DHT22;4207;49.314;7.162;2023-03-26T16:16:22;9.50;99.90
8340;DHT22;4207;49.314;7.162;2023-03-26T16:18:55;9.50;99.90
8340;DHT22;4207;49.314;7.162;2023-03-26T16:21:43;9.40;99.90
8340;DHT22;4207;49.314;7.162;2023-03-26T16:24:29;9.40;99.90
8340;DHT22;4207;49.314;7.162;2023-03-26T16:27:24;9.40;99.90
8340;DHT22;4207;49.314;7.162;2023-03-26T16:30:15;9.50;99.90
8340;DHT22;4207;49.314;7.162;2023-03-26T16:32:53;9.50;99.90
8340;DHT22;4207;49.314;7.162;2023-03-26T16:35:37;9.40;99.90
8340;DHT22;4207;49.314;7.162;2023-03-26T16:38:13;9.40;99.90
8340;DHT22;4207;49.314;7.162;2023-03-26T16:41:03;9.30;99.90
8340;DHT22;4207;49.314;7.162;2023-03-26T16:44:05;9.20;99.90
8340;DHT22;4207;49.314;7.162;2023-03-26T16:46:48;9.20;99.90
8340;DHT22;4207;49.314;7.162;2023-03-26T16:49:36;9.10;99.90
8340;DHT22;4207;49.314;7.162;2023-03-26T16:52:22;9.20;99.90
8340;DHT22;4207;49.314;7.162;2023-03-26T16:55:03;9.10;99.90
8340;DHT22;4207;49.314;7.162;2023-03-26T16:57:42;9.20;99.90
8340;DHT22;4207;49.314;7.162;2023-03-26T17:00:37;9.30;99.90
8340;DHT22;4207;49.314;7.162;2023-03-26T17:06:24;9.20;99.90
8340;DHT22;4207;49.314;7.162;2023-03-26T17:09:00;9.20;99.90
8340;DHT22;4207;49.314;7.162;2023-03-26T17:11:39;9.20;99.90
8340;DHT22;4207;49.314;7.162;2023-03-26T17:17:11;9.00;99.90
8340;DHT22;4207;49.314;7.162;2023-03-26T17:19:50;8.90;99.90
8340;DHT22;4207;49.314;7.162;2023-03-26T17:22:28;8.90;99.90
8340;DHT22;4207;49.314;7.162;2023-03-26T17:25:02;9.00;99.90
8340;DHT22;4207;49.314;7.162;2023-03-26T17:27:46;9.00;99.90
8340;DHT22;4207;49.314;7.162;2023-03-26T17:30:32;8.80;99.90
8340;DHT22;4207;49.314;7.162;2023-03-26T17:33:11;8.70;99.90
8340;DHT22;4207;49.314;7.162;2023-03-26T17:35:43;8.70;99.90
8340;DHT22;4207;49.314;7.162;2023-03-26T17:44:44;8.50;99.90
8340;DHT22;4207;49.314;7.162;2023-03-26T17:47:35;8.50;99.90
8340;DHT22;4207;49.314;7.162;2023-03-26T17:50:11;8.40;99.90
8340;DHT22;4207;49.314;7.162;2023-03-26T17:52:54;8.40;99.90
8340;DHT22;4207;49.314;7.162;2023-03-26T17:55:26;8.30;99.90
8340;DHT22;4207;49.314;7.162;2023-03-26T17:57:58;8.30;99.90
8340;DHT22;4207;49.314;7.162;2023-03-26T18:00:30;8.30;99.90
8340;DHT22;4207;49.314;7.162;2023-03-26T18:03:01;8.30;99.90
8340;DHT22;4207;49.314;7.162;2023-03-26T18:05:33;8.30;99.90
8340;DHT22;4207;49.314;7.162;2023-03-26T18:08:42;8.20;99.90
8340;DHT22;4207;49.314;7.162;2023-03-26T18:11:58;8.20;99.90
8340;DHT22;4207;49.314;7.162;2023-03-26T18:14:45;8.20;99.90
8340;DHT22;4207;49.314;7.162;2023-03-26T18:17:20;8.20;99.90
8340;DHT22;4207;49.314;7.162;2023-03-26T18:19:51;8.10;99.90
8340;DHT22;4207;49.314;7.162;2023-03-26T18:22:22;8.20;99.90
8340;DHT22;4207;49.314;7.162;2023-03-26T18:24:54;8.10;99.90
8340;DHT22;4207;49.314;7.162;2023-03-26T18:27:31;8.10;99.90
8340;DHT22;4207;49.314;7.162;2023-03-26T18:30:02;8.00;99.90
8340;DHT22;4207;49.314;7.162;2023-03-26T18:32:50;8.00;99.90
8340;DHT22;4207;49.314;7.162;2023-03-26T18:35:25;7.90;99.90
8340;DHT22;4207;49.314;7.162;2023-03-26T18:37:56;7.90;99.90
8340;DHT22;4207;49.314;7.162;2023-03-26T18:40:32;7.90;99.90
8340;DHT22;4207;49.314;7.162;2023-03-26T18:43:14;7.80;99.90
8340;DHT22;4207;49.314;7.162;2023-03-26T18:46:00;7.80;99.90